Time;durP1;ratioP1;P1;durP2;ratioP2;P2;SDS_P1;SDS_P2;PMS_P1;PMS_P2;Temp;Humidity;BMP_temperature;BMP_pressure;BME280_temperature;BME280_humidity;BME280_pressure;Samples;Min_cycle;Max_cycle;Signal;HPM_P1;HPM_P2
2021/12/09 00:02:04;;;;;;;74.10;51.43;;;0.50;99.90;;;;;;5049260;28;20750;-85
2021/12/09 00:04:31;;;;;;;73.53;52.03;;;0.60;99.90;;;;;;5057032;28;20441;-81
2021/12/09 00:07:00;;;;;;;72.65;51.70;;;0.50;99.90;;;;;;5066850;28;20796;-83
2021/12/09 00:09:25;;;;;;;70.97;51.70;;;0.50;99.90;;;;;;5053901;28;20989;-85
2021/12/09 00:11:51;;;;;;;72.30;51.75;;;0.40;99.90;;;;;;5068405;28;20464;-83
2021/12/09 00:14:21;;;;;;;70.55;51.75;;;0.40;99.90;;;;;;5060387;28;20368;-84
2021/12/09 00:16:47;;;;;;;71.53;50.95;;;0.40;99.90;;;;;;5047201;28;20412;-85
2021/12/09 00:19:13;;;;;;;71.18;50.70;;;0.40;99.90;;;;;;5047264;28;20470;-82
2021/12/09 00:21:39;;;;;;;71.15;50.95;;;0.40;99.90;;;;;;5046664;28;20957;-84
2021/12/09 00:24:05;;;;;;;71.00;51.30;;;0.30;99.90;;;;;;5059020;28;20926;-84
2021/12/09 00:26:31;;;;;;;73.43;51.85;;;0.40;99.90;;;;;;5067876;28;20386;-85
2021/12/09 00:28:57;;;;;;;74.27;52.30;;;0.40;99.90;;;;;;5054444;28;20877;-83
2021/12/09 00:31:24;;;;;;;75.10;52.70;;;0.50;99.90;;;;;;5055679;28;20476;-83
2021/12/09 00:33:50;;;;;;;77.57;54.70;;;0.40;99.90;;;;;;5048152;28;20858;-84
2021/12/09 00:36:26;;;;;;;72.28;51.90;;;0.30;99.90;;;;;;5049081;28;20889;-85
2021/12/09 00:38:54;;;;;;;73.40;51.90;;;0.40;99.90;;;;;;5052310;28;20422;-83
2021/12/09 00:41:20;;;;;;;73.25;52.28;;;0.40;99.90;;;;;;5051248;28;20387;-84
2021/12/09 00:43:46;;;;;;;72.88;51.65;;;0.50;99.90;;;;;;5052010;28;20408;-84
2021/12/09 00:46:13;;;;;;;74.78;53.28;;;0.50;99.90;;;;;;5052085;28;20434;-83
2021/12/09 00:48:39;;;;;;;75.88;52.50;;;0.40;99.90;;;;;;5050613;28;20387;-83
2021/12/09 00:51:06;;;;;;;73.82;52.10;;;0.40;99.90;;;;;;5057183;28;20918;-83
2021/12/09 00:53:32;;;;;;;71.15;51.85;;;0.50;99.90;;;;;;5069806;28;20455;-84
2021/12/09 00:55:58;;;;;;;73.00;52.17;;;0.40;99.90;;;;;;5069434;28;20473;-84
2021/12/09 00:58:24;;;;;;;71.95;51.55;;;0.40;99.90;;;;;;5069913;28;20468;-82
2021/12/09 01:00:49;;;;;;;72.40;51.60;;;0.50;99.90;;;;;;5061949;28;20423;-84
2021/12/09 01:03:16;;;;;;;73.95;52.45;;;0.40;99.90;;;;;;5052264;28;20891;-83
2021/12/09 01:05:44;;;;;;;75.35;53.38;;;0.30;99.90;;;;;;5063747;28;20390;-83
2021/12/09 01:08:11;;;;;;;75.05;52.67;;;0.30;99.90;;;;;;5055147;28;20454;-83
2021/12/09 01:10:37;;;;;;;79.20;54.78;;;0.30;99.90;;;;;;5065984;28;20393;-83
2021/12/09 01:13:03;;;;;;;79.85;55.47;;;0.30;99.90;;;;;;5050271;28;20392;-84
2021/12/09 01:15:29;;;;;;;79.65;55.75;;;0.20;99.90;;;;;;5050117;28;21234;-86
2021/12/09 01:17:55;;;;;;;78.47;55.47;;;0.20;99.90;;;;;;5051089;28;20376;-84
2021/12/09 01:20:25;;;;;;;81.67;55.83;;;0.20;99.90;;;;;;5070898;28;20465;-85
2021/12/09 01:22:55;;;;;;;80.97;56.97;;;0.20;99.90;;;;;;5049776;28;20785;-84
2021/12/09 01:25:23;;;;;;;83.53;57.72;;;0.20;99.90;;;;;;5063870;28;20468;-85
2021/12/09 01:27:54;;;;;;;81.68;56.22;;;0.30;99.90;;;;;;5069788;28;20382;-85
2021/12/09 01:30:21;;;;;;;82.38;57.35;;;0.30;99.90;;;;;;5070753;28;20389;-84
2021/12/09 01:32:51;;;;;;;82.47;57.10;;;0.30;99.90;;;;;;5056227;28;20386;-84
2021/12/09 01:35:26;;;;;;;83.30;57.92;;;0.30;99.90;;;;;;5069450;28;20394;-85
2021/12/09 01:37:57;;;;;;;84.78;57.55;;;0.30;99.90;;;;;;5060124;28;20411;-83
2021/12/09 01:40:24;;;;;;;84.50;57.47;;;0.20;99.90;;;;;;5049181;28;20448;-82
2021/12/09 01:42:51;;;;;;;86.47;58.08;;;0.20;99.90;;;;;;5062814;28;20779;-83
2021/12/09 01:45:17;;;;;;;84.73;58.70;;;0.20;99.90;;;;;;5070651;28;20373;-83
2021/12/09 01:47:43;;;;;;;86.18;59.35;;;0.20;99.90;;;;;;5069329;28;20378;-84
2021/12/09 01:50:10;;;;;;;85.72;56.95;;;0.20;99.90;;;;;;5070617;28;20385;-81
2021/12/09 01:52:36;;;;;;;88.13;60.80;;;0.20;99.90;;;;;;5066026;28;20402;-83
2021/12/09 01:55:03;;;;;;;86.30;59.30;;;0.20;99.90;;;;;;5070273;28;20386;-83
2021/12/09 01:57:29;;;;;;;86.82;58.95;;;0.20;99.90;;;;;;5068919;28;20390;-82
2021/12/09 01:59:54;;;;;;;90.35;59.97;;;0.20;99.90;;;;;;5068445;28;20377;-82
2021/12/09 02:02:20;;;;;;;87.60;59.88;;;0.10;99.90;;;;;;5068297;28;20879;-84
2021/12/09 02:04:46;;;;;;;85.53;58.70;;;0.10;99.90;;;;;;5068768;28;20402;-83
2021/12/09 02:07:12;;;;;;;87.60;59.55;;;0.20;99.90;;;;;;5067122;28;20417;-84
2021/12/09 02:09:38;;;;;;;90.05;60.30;;;0.30;99.90;;;;;;5070150;28;20453;-84
2021/12/09 02:12:05;;;;;;;82.93;58.83;;;0.30;99.90;;;;;;5055456;28;20395;-85
2021/12/09 02:14:31;;;;;;;87.60;60.15;;;0.30;99.90;;;;;;5050543;28;20419;-83
2021/12/09 02:16:56;;;;;;;84.07;58.13;;;0.20;99.90;;;;;;5052555;28;20426;-84
2021/12/09 02:19:22;;;;;;;82.33;57.83;;;0.20;99.90;;;;;;5049025;28;20449;-83
2021/12/09 02:21:48;;;;;;;88.35;61.60;;;0.20;99.90;;;;;;5058303;28;20414;-84
2021/12/09 02:24:16;;;;;;;84.63;59.30;;;0.10;99.90;;;;;;5057179;28;20411;-83
2021/12/09 02:26:49;;;;;;;83.07;58.08;;;0.00;99.90;;;;;;5049748;28;20766;-84
2021/12/09 02:29:16;;;;;;;89.13;60.08;;;0.10;99.90;;;;;;5046270;28;20427;-83
2021/12/09 02:31:43;;;;;;;84.40;59.63;;;0.20;99.90;;;;;;5051936;28;20387;-84
2021/12/09 02:34:11;;;;;;;87.70;60.63;;;0.20;99.90;;;;;;5049853;28;20501;-82
2021/12/09 02:36:40;;;;;;;93.95;63.63;;;0.30;99.90;;;;;;5048929;28;20388;-82
2021/12/09 02:39:09;;;;;;;93.50;61.90;;;0.20;99.90;;;;;;5049663;28;20395;-84
2021/12/09 02:41:37;;;;;;;88.15;61.28;;;0.10;99.90;;;;;;5059506;28;20737;-82
2021/12/09 02:44:05;;;;;;;91.90;62.70;;;0.20;99.90;;;;;;5061155;28;20398;-83
2021/12/09 02:46:36;;;;;;;95.05;63.33;;;0.30;99.90;;;;;;5069092;28;20424;-84
2021/12/09 02:49:08;;;;;;;87.30;61.50;;;0.30;99.90;;;;;;5053089;28;20402;-85
2021/12/09 02:51:35;;;;;;;88.00;62.08;;;0.30;99.90;;;;;;5047777;28;20383;-83
2021/12/09 02:54:01;;;;;;;90.00;62.05;;;0.30;99.90;;;;;;5069128;28;20433;-85
2021/12/09 02:56:26;;;;;;;93.00;63.23;;;0.30;99.90;;;;;;5061616;28;20419;-84
2021/12/09 02:58:52;;;;;;;96.73;64.00;;;0.30;99.90;;;;;;5062515;28;20374;-81
2021/12/09 03:01:25;;;;;;;88.40;61.87;;;0.30;99.90;;;;;;5068339;28;20385;-83
2021/12/09 03:03:56;;;;;;;90.18;64.15;;;0.30;99.90;;;;;;5053430;28;20435;-83
2021/12/09 03:06:34;;;;;;;93.45;62.47;;;0.30;99.90;;;;;;5049367;28;20416;-84
2021/12/09 03:09:05;;;;;;;91.75;64.30;;;0.30;99.90;;;;;;5049195;28;20404;-84
2021/12/09 03:11:31;;;;;;;94.10;64.40;;;0.20;99.90;;;;;;5064709;28;20409;-83
2021/12/09 03:13:57;;;;;;;91.80;64.07;;;0.10;99.90;;;;;;5066579;28;20374;-83
2021/12/09 03:16:24;;;;;;;90.13;61.72;;;0.10;99.90;;;;;;5065456;28;20918;-82
2021/12/09 03:18:55;;;;;;;90.22;62.22;;;0.20;99.90;;;;;;5054057;28;20395;-84
2021/12/09 03:21:24;;;;;;;89.18;61.95;;;0.20;99.90;;;;;;5049591;28;20445;-83
2021/12/09 03:23:50;;;;;;;91.35;64.68;;;0.10;99.90;;;;;;5065383;28;20418;-82
2021/12/09 03:26:17;;;;;;;92.78;64.10;;;0.10;99.90;;;;;;5049905;28;20746;-83
2021/12/09 03:28:43;;;;;;;90.27;61.77;;;0.20;99.90;;;;;;5053586;28;20388;-84
2021/12/09 03:31:09;;;;;;;87.97;62.22;;;0.20;99.90;;;;;;5066753;28;20432;-81
2021/12/09 03:33:35;;;;;;;91.10;63.47;;;0.20;99.90;;;;;;5065630;28;20713;-83
2021/12/09 03:36:03;;;;;;;88.60;60.93;;;0.10;99.90;;;;;;5047573;28;20395;-82
2021/12/09 03:38:29;;;;;;;87.72;61.38;;;0.20;99.90;;;;;;5048601;28;20890;-83
2021/12/09 03:40:56;;;;;;;89.00;62.70;;;0.20;99.90;;;;;;5057120;28;20389;-84
2021/12/09 03:43:23;;;;;;;85.78;60.65;;;0.20;99.90;;;;;;5046882;28;20408;-85
2021/12/09 03:45:50;;;;;;;93.47;62.88;;;0.20;99.90;;;;;;5056303;28;20898;-84
2021/12/09 03:48:17;;;;;;;87.15;61.70;;;0.20;99.90;;;;;;5051276;28;20437;-82
2021/12/09 03:50:45;;;;;;;89.30;62.05;;;0.20;99.90;;;;;;5050325;28;20476;-81
2021/12/09 03:53:12;;;;;;;88.10;60.92;;;0.10;99.90;;;;;;5066525;28;20382;-82
2021/12/09 03:55:37;;;;;;;84.75;60.90;;;0.20;99.90;;;;;;5051193;28;20400;-82
2021/12/09 03:58:03;;;;;;;88.93;61.93;;;0.30;99.90;;;;;;5055154;28;20390;-84
2021/12/09 04:00:30;;;;;;;91.60;62.67;;;0.20;99.90;;;;;;5055465;28;20379;-85
2021/12/09 04:02:56;;;;;;;88.15;61.33;;;0.30;99.90;;;;;;5064191;28;20410;-84
2021/12/09 04:05:22;;;;;;;88.80;61.67;;;0.20;99.90;;;;;;5066633;28;20389;-83
2021/12/09 04:07:47;;;;;;;88.70;60.75;;;0.30;99.90;;;;;;5064078;28;21169;-82
2021/12/09 04:10:13;;;;;;;88.63;61.87;;;0.20;99.90;;;;;;5048568;28;20402;-84
2021/12/09 04:12:39;;;;;;;88.63;61.83;;;0.20;99.90;;;;;;5069008;28;20385;-82
2021/12/09 04:15:06;;;;;;;89.05;61.80;;;0.20;99.90;;;;;;5056657;28;20738;-83
2021/12/09 04:17:32;;;;;;;88.85;61.85;;;0.10;99.90;;;;;;5050776;28;20738;-83
2021/12/09 04:19:58;;;;;;;88.23;60.37;;;0.20;99.90;;;;;;5051271;28;20861;-83
2021/12/09 04:22:24;;;;;;;87.50;62.43;;;0.20;99.90;;;;;;5053991;28;20398;-82
2021/12/09 04:24:51;;;;;;;92.20;62.93;;;0.20;99.90;;;;;;5071749;28;20459;-82
2021/12/09 04:27:17;;;;;;;93.85;63.97;;;0.10;99.90;;;;;;5070745;28;20373;-83
2021/12/09 04:29:43;;;;;;;93.55;64.25;;;0.10;99.90;;;;;;5072266;28;20439;-82
2021/12/09 04:32:09;;;;;;;92.90;62.77;;;0.10;99.90;;;;;;5065883;28;20396;-85
2021/12/09 04:34:35;;;;;;;92.55;63.90;;;0.30;99.90;;;;;;5060339;28;20382;-83
2021/12/09 04:37:01;;;;;;;86.80;61.43;;;0.20;99.90;;;;;;5070672;28;20465;-82
2021/12/09 04:39:26;;;;;;;88.95;62.03;;;0.20;99.90;;;;;;5069941;28;20432;-82
2021/12/09 04:41:54;;;;;;;90.00;63.38;;;0.20;99.90;;;;;;5068142;28;20891;-82
2021/12/09 04:44:20;;;;;;;88.13;62.25;;;0.20;99.90;;;;;;5056888;28;20406;-83
2021/12/09 04:46:45;;;;;;;90.93;63.60;;;0.20;99.90;;;;;;5068720;28;20418;-82
2021/12/09 04:49:11;;;;;;;94.40;65.15;;;0.10;99.90;;;;;;5056697;28;21007;-82
2021/12/09 04:51:37;;;;;;;93.60;63.25;;;0.00;99.90;;;;;;5071506;28;20435;-82
2021/12/09 04:54:06;;;;;;;89.43;63.13;;;0.10;99.90;;;;;;5053561;28;20419;-81
2021/12/09 04:56:33;;;;;;;89.00;62.88;;;0.10;99.90;;;;;;5059050;28;20438;-82
2021/12/09 04:58:59;;;;;;;95.20;63.47;;;0.10;99.90;;;;;;5065636;28;20442;-81
2021/12/09 05:01:25;;;;;;;90.47;61.67;;;0.20;99.90;;;;;;5055107;28;20374;-81
2021/12/09 05:03:51;;;;;;;92.32;62.15;;;0.30;99.90;;;;;;5067802;28;20406;-83
2021/12/09 05:06:18;;;;;;;86.45;61.38;;;0.30;99.90;;;;;;5049965;28;20396;-82
2021/12/09 05:08:48;;;;;;;89.57;62.38;;;0.30;99.90;;;;;;5062223;28;20383;-81
2021/12/09 05:14:02;;;;;;;91.78;62.63;;;0.30;99.90;;;;;;5068290;28;20404;-83
2021/12/09 05:16:28;;;;;;;84.07;59.92;;;0.30;99.90;;;;;;5051374;28;20375;-82
2021/12/09 05:18:58;;;;;;;89.30;63.15;;;0.30;99.90;;;;;;5050016;28;20384;-81
2021/12/09 05:21:29;;;;;;;91.50;62.25;;;0.30;99.90;;;;;;5050275;28;20742;-81
2021/12/09 05:23:57;;;;;;;92.13;62.92;;;0.30;99.90;;;;;;5050076;28;20893;-83
2021/12/09 05:26:27;;;;;;;88.10;62.70;;;0.30;99.90;;;;;;5051920;28;20806;-81
2021/12/09 05:28:56;;;;;;;90.10;62.38;;;0.30;99.90;;;;;;5049765;28;20407;-83
2021/12/09 05:34:09;;;;;;;88.97;61.53;;;0.30;99.90;;;;;;5070290;28;20447;-81
2021/12/09 05:36:35;;;;;;;89.47;61.42;;;0.30;99.90;;;;;;5069585;28;20895;-82
2021/12/09 05:39:02;;;;;;;88.72;61.65;;;0.30;99.90;;;;;;5070354;28;20398;-83
2021/12/09 05:41:27;;;;;;;88.47;62.22;;;0.40;99.90;;;;;;5067226;28;20379;-81
2021/12/09 05:43:53;;;;;;;85.85;60.42;;;0.40;99.90;;;;;;5059884;28;20439;-82
2021/12/09 05:46:18;;;;;;;92.07;62.97;;;0.40;99.90;;;;;;5070289;28;20390;-82
2021/12/09 05:48:44;;;;;;;89.82;61.45;;;0.30;99.90;;;;;;5070706;28;20377;-84
2021/12/09 05:51:10;;;;;;;84.63;60.83;;;0.30;99.90;;;;;;5068945;28;20929;-83
2021/12/09 05:53:35;;;;;;;91.23;64.47;;;0.30;99.90;;;;;;5054616;28;20376;-82
2021/12/09 05:56:01;;;;;;;91.93;64.30;;;0.20;99.90;;;;;;5057279;28;20456;-82
2021/12/09 05:58:26;;;;;;;90.65;62.75;;;0.30;99.90;;;;;;5068365;28;20370;-83
2021/12/09 06:00:53;;;;;;;88.32;61.17;;;0.30;99.90;;;;;;5069004;28;20386;-83
2021/12/09 06:03:20;;;;;;;88.40;61.42;;;0.40;99.90;;;;;;5067415;28;20434;-81
2021/12/09 06:05:47;;;;;;;85.65;61.10;;;0.30;99.90;;;;;;5069160;28;20378;-83
2021/12/09 06:08:12;;;;;;;89.70;62.45;;;0.30;99.90;;;;;;5067443;28;20869;-83
2021/12/09 06:10:38;;;;;;;90.43;63.78;;;0.30;99.90;;;;;;5051028;28;20418;-82
2021/12/09 06:13:04;;;;;;;88.07;62.20;;;0.20;99.90;;;;;;5059354;28;20421;-82
2021/12/09 06:15:30;;;;;;;91.35;62.38;;;0.20;99.90;;;;;;5064286;28;20386;-83
2021/12/09 06:17:56;;;;;;;90.20;64.10;;;0.20;99.90;;;;;;5068299;28;20499;-83
2021/12/09 06:20:23;;;;;;;90.35;62.80;;;0.30;99.90;;;;;;5068461;28;20879;-84
2021/12/09 06:22:49;;;;;;;91.85;62.63;;;0.30;99.90;;;;;;5068725;28;20759;-83
2021/12/09 06:25:18;;;;;;;88.70;62.45;;;0.30;99.90;;;;;;5065187;28;20389;-82
2021/12/09 06:27:45;;;;;;;85.97;62.33;;;0.30;99.90;;;;;;5068919;28;20478;-82
2021/12/09 06:30:12;;;;;;;87.70;62.00;;;0.30;99.90;;;;;;5050180;28;20916;-84
2021/12/09 06:32:38;;;;;;;87.30;61.35;;;0.30;99.90;;;;;;5065823;28;20382;-84
2021/12/09 06:35:05;;;;;;;91.60;63.65;;;0.20;99.90;;;;;;5068020;28;20382;-84
2021/12/09 06:37:31;;;;;;;88.60;62.47;;;0.20;99.90;;;;;;5069216;28;20481;-84
2021/12/09 06:39:57;;;;;;;85.35;59.42;;;0.20;99.90;;;;;;5068147;28;20502;-83
2021/12/09 06:42:22;;;;;;;91.03;62.63;;;0.30;99.90;;;;;;5053571;28;20873;-83
2021/12/09 06:44:48;;;;;;;87.77;61.67;;;0.20;99.90;;;;;;5048426;28;20447;-82
2021/12/09 06:47:14;;;;;;;88.97;61.60;;;0.30;99.90;;;;;;5065067;28;21214;-83
2021/12/09 06:49:39;;;;;;;87.97;62.28;;;0.30;99.90;;;;;;5068188;28;20383;-83
2021/12/09 06:52:05;;;;;;;92.20;62.78;;;0.30;99.90;;;;;;5052638;28;20467;-82
2021/12/09 06:54:32;;;;;;;90.18;61.88;;;0.20;99.90;;;;;;5060996;28;20380;-81
2021/12/09 06:56:58;;;;;;;89.82;62.47;;;0.30;99.90;;;;;;5051106;28;20458;-84
2021/12/09 06:59:23;;;;;;;93.30;63.60;;;0.50;99.90;;;;;;5047876;28;20900;-82
2021/12/09 07:01:49;;;;;;;94.47;65.20;;;0.40;99.90;;;;;;5055579;28;20392;-82
2021/12/09 07:04:14;;;;;;;94.18;63.55;;;0.30;99.90;;;;;;5047976;28;20458;-83
2021/12/09 07:06:40;;;;;;;98.27;66.37;;;0.30;99.90;;;;;;5049959;28;20427;-83
2021/12/09 07:09:06;;;;;;;104.93;69.03;;;0.20;99.90;;;;;;5063045;28;20374;-83
2021/12/09 07:11:32;;;;;;;99.67;68.13;;;0.20;99.90;;;;;;5059793;28;20510;-81
2021/12/09 07:13:58;;;;;;;105.75;70.60;;;0.10;99.90;;;;;;5056212;28;20472;-83
2021/12/09 07:16:24;;;;;;;108.10;70.10;;;0.10;99.90;;;;;;5068659;28;20382;-82
2021/12/09 07:18:51;;;;;;;101.23;67.07;;;0.10;99.90;;;;;;5054913;28;20483;-84
2021/12/09 07:21:17;;;;;;;105.78;70.10;;;0.20;99.90;;;;;;5053757;28;20484;-84
2021/12/09 07:23:42;;;;;;;104.72;68.90;;;0.20;99.90;;;;;;5060083;28;20435;-83
2021/12/09 07:26:09;;;;;;;107.80;69.77;;;0.10;99.90;;;;;;5049043;28;20947;-83
2021/12/09 07:28:34;;;;;;;107.40;69.35;;;0.20;99.90;;;;;;5047189;28;20409;-82
2021/12/09 07:31:00;;;;;;;103.78;68.10;;;0.20;99.90;;;;;;5057507;28;20386;-82
2021/12/09 07:33:26;;;;;;;99.68;65.95;;;0.20;99.90;;;;;;5068897;28;20370;-82
2021/12/09 07:35:51;;;;;;;105.68;69.63;;;0.30;99.90;;;;;;5067539;28;20721;-82
2021/12/09 07:38:17;;;;;;;111.03;70.38;;;0.30;99.90;;;;;;5068602;28;20390;-84
2021/12/09 07:40:43;;;;;;;102.65;66.30;;;0.30;99.90;;;;;;5048505;28;20384;-82
2021/12/09 07:43:09;;;;;;;107.07;69.13;;;0.40;99.90;;;;;;5048717;28;20431;-83
2021/12/09 07:45:34;;;;;;;104.00;67.10;;;0.30;99.90;;;;;;5047049;28;20383;-82
2021/12/09 07:48:00;;;;;;;105.37;68.23;;;0.30;99.90;;;;;;5048724;28;20422;-84
2021/12/09 07:50:29;;;;;;;107.03;69.65;;;0.30;99.90;;;;;;5062809;28;20489;-83
2021/12/09 07:52:55;;;;;;;102.78;67.55;;;0.30;99.90;;;;;;5068626;28;20454;-83
2021/12/09 07:55:23;;;;;;;112.72;70.13;;;0.40;99.90;;;;;;5066489;28;20385;-84
2021/12/09 07:57:49;;;;;;;104.88;68.53;;;0.50;99.90;;;;;;5066791;28;20452;-82
2021/12/09 08:00:18;;;;;;;106.03;67.95;;;0.40;99.90;;;;;;5059601;28;20508;-84
2021/12/09 08:02:45;;;;;;;106.13;68.93;;;0.50;99.90;;;;;;5048359;28;20380;-83
2021/12/09 08:05:16;;;;;;;105.57;68.03;;;0.60;99.90;;;;;;5049479;28;20388;-83
2021/12/09 08:07:41;;;;;;;108.88;70.20;;;0.60;99.90;;;;;;5066037;28;20390;-82
2021/12/09 08:10:13;;;;;;;105.95;70.13;;;0.60;99.90;;;;;;5066604;28;20454;-83
2021/12/09 08:12:39;;;;;;;111.93;72.00;;;0.50;99.90;;;;;;5068371;28;20374;-82
2021/12/09 08:15:07;;;;;;;108.13;71.15;;;0.50;99.90;;;;;;5056852;28;20727;-82
2021/12/09 08:20:12;;;;;;;111.77;71.43;;;0.50;99.90;;;;;;5068299;28;20382;-84
2021/12/09 08:22:39;;;;;;;112.07;71.80;;;0.50;99.90;;;;;;5066796;28;20382;-83
2021/12/09 08:25:09;;;;;;;111.97;71.60;;;0.40;99.90;;;;;;5067823;28;20378;-82
2021/12/09 08:27:36;;;;;;;114.72;71.35;;;0.50;99.90;;;;;;5066199;28;20466;-83
2021/12/09 08:30:06;;;;;;;117.82;76.63;;;0.40;99.90;;;;;;5067894;28;20454;-84
2021/12/09 08:32:35;;;;;;;114.90;72.80;;;0.30;99.90;;;;;;5066413;28;20378;-83
2021/12/09 08:35:01;;;;;;;113.22;71.88;;;0.40;99.90;;;;;;5065775;28;20721;-83
2021/12/09 08:37:27;;;;;;;117.60;73.95;;;0.50;99.90;;;;;;5066173;28;20404;-81
2021/12/09 08:39:52;;;;;;;108.72;71.13;;;0.40;99.90;;;;;;5068160;28;20476;-82
2021/12/09 08:42:18;;;;;;;112.20;73.00;;;0.30;99.90;;;;;;5067262;28;20450;-81
2021/12/09 08:44:44;;;;;;;124.27;74.70;;;0.50;99.90;;;;;;5066986;28;20390;-84
2021/12/09 08:47:10;;;;;;;118.00;75.72;;;0.40;99.90;;;;;;5066597;28;20741;-81
2021/12/09 08:49:36;;;;;;;116.53;74.20;;;0.40;99.90;;;;;;5068083;28;20429;-83
2021/12/09 08:52:03;;;;;;;111.83;71.37;;;0.50;99.90;;;;;;5067583;28;20445;-82
2021/12/09 08:54:29;;;;;;;107.05;69.40;;;0.60;99.90;;;;;;5066773;28;20389;-81
2021/12/09 08:56:56;;;;;;;113.40;73.57;;;0.50;99.90;;;;;;5069153;28;20936;-83
2021/12/09 08:59:22;;;;;;;115.90;72.43;;;0.50;99.90;;;;;;5070208;28;20406;-83
2021/12/09 09:01:49;;;;;;;108.38;69.97;;;0.50;99.90;;;;;;5069804;28;20370;-82
2021/12/09 09:04:15;;;;;;;107.13;69.68;;;0.60;99.90;;;;;;5071149;28;20810;-82
2021/12/09 09:06:55;;;;;;;106.67;69.00;;;0.60;99.90;;;;;;5071509;28;20851;-80
2021/12/09 09:09:21;;;;;;;103.20;68.13;;;0.70;99.90;;;;;;5071470;28;20417;-82
2021/12/09 09:11:46;;;;;;;107.50;71.13;;;0.80;99.90;;;;;;5068654;28;20891;-82
2021/12/09 09:14:12;;;;;;;105.90;69.63;;;0.90;99.90;;;;;;5071304;28;20473;-82
2021/12/09 09:16:38;;;;;;;103.03;67.03;;;0.90;99.90;;;;;;5069867;28;20418;-83
2021/12/09 09:19:04;;;;;;;111.55;72.80;;;0.80;99.90;;;;;;5069872;28;20760;-83
2021/12/09 09:21:31;;;;;;;104.97;70.30;;;0.70;99.90;;;;;;5069172;28;20850;-83
2021/12/09 09:23:57;;;;;;;111.22;72.00;;;0.70;99.90;;;;;;5069973;28;20764;-80
2021/12/09 09:26:23;;;;;;;100.05;66.65;;;0.80;99.90;;;;;;5070019;28;20378;-81
2021/12/09 09:28:49;;;;;;;103.93;68.53;;;0.90;99.90;;;;;;5070369;28;20381;-81
2021/12/09 09:31:15;;;;;;;97.45;65.40;;;1.00;99.90;;;;;;5070071;28;20378;-81
2021/12/09 09:33:41;;;;;;;101.90;67.45;;;1.20;99.90;;;;;;5069574;28;20377;-82
2021/12/09 09:36:06;;;;;;;99.30;65.97;;;1.50;99.90;;;;;;5069723;28;20465;-83
2021/12/09 09:38:32;;;;;;;93.72;64.88;;;1.60;99.90;;;;;;5070400;28;20389;-82
2021/12/09 09:41:10;;;;;;;92.80;63.50;;;1.70;99.90;;;;;;5068848;28;20388;-81
2021/12/09 09:43:57;;;;;;;90.35;63.15;;;1.80;99.90;;;;;;5066638;28;20402;-82
2021/12/09 09:46:26;;;;;;;87.65;61.15;;;2.00;99.90;;;;;;5070687;28;20908;-82
2021/12/09 09:48:53;;;;;;;86.72;60.30;;;2.00;99.90;;;;;;5069391;28;20375;-81
2021/12/09 09:51:22;;;;;;;81.65;57.67;;;2.10;99.90;;;;;;5069845;28;20405;-82
2021/12/09 09:53:49;;;;;;;81.30;58.28;;;2.20;99.90;;;;;;5069229;28;20370;-81
2021/12/09 09:56:19;;;;;;;84.60;60.38;;;2.30;99.90;;;;;;5068545;28;20803;-82
2021/12/09 09:58:49;;;;;;;83.38;60.20;;;2.40;99.90;;;;;;5069624;28;20394;-83
2021/12/09 10:01:16;;;;;;;84.40;60.33;;;2.50;99.90;;;;;;5069593;28;20779;-82
2021/12/09 10:03:46;;;;;;;86.03;60.50;;;2.60;99.90;;;;;;5070019;28;20456;-81
2021/12/09 10:06:14;;;;;;;79.30;56.97;;;2.50;99.90;;;;;;5070466;28;20382;-82
2021/12/09 10:08:40;;;;;;;81.50;58.33;;;2.60;99.90;;;;;;5070059;28;20468;-81
2021/12/09 10:11:07;;;;;;;82.63;59.22;;;2.60;99.90;;;;;;5069687;28;20799;-83
2021/12/09 10:13:38;;;;;;;81.22;57.78;;;2.60;99.90;;;;;;5069469;28;20961;-81
2021/12/09 10:16:16;;;;;;;81.40;58.58;;;2.60;99.90;;;;;;5070216;28;20715;-81
2021/12/09 10:18:45;;;;;;;81.38;57.72;;;2.80;99.90;;;;;;5069982;28;20459;-82
2021/12/09 10:21:19;;;;;;;83.45;58.03;;;2.90;99.90;;;;;;5068266;28;20870;-81
2021/12/09 10:23:48;;;;;;;78.00;57.47;;;3.00;99.90;;;;;;5069926;28;20402;-81
2021/12/09 10:26:19;;;;;;;82.03;57.65;;;2.80;99.90;;;;;;5070064;28;20436;-82
2021/12/09 10:28:55;;;;;;;78.97;58.45;;;2.70;99.90;;;;;;5067875;28;20429;-82
2021/12/09 10:31:29;;;;;;;84.90;60.40;;;2.50;99.90;;;;;;5067685;28;20424;-81
2021/12/09 10:34:08;;;;;;;87.20;61.60;;;2.30;99.90;;;;;;5069956;28;20378;-81
2021/12/09 10:36:46;;;;;;;81.35;59.08;;;2.10;99.90;;;;;;5068230;28;20473;-82
2021/12/09 10:39:40;;;;;;;83.05;60.85;;;2.10;99.90;;;;;;5067291;28;20975;-81
2021/12/09 10:42:16;;;;;;;88.55;61.72;;;2.00;99.90;;;;;;5069003;28;20374;-82
2021/12/09 10:44:55;;;;;;;85.32;60.55;;;2.00;99.90;;;;;;5069586;28;20782;-82
2021/12/09 10:50:24;;;;;;;83.78;60.25;;;2.20;99.90;;;;;;5069898;28;20370;-81
2021/12/09 10:52:57;;;;;;;78.20;58.15;;;2.40;99.90;;;;;;5069644;28;20431;-81
2021/12/09 10:55:30;;;;;;;80.15;58.72;;;2.50;99.90;;;;;;5063787;28;20764;-81
2021/12/09 10:58:11;;;;;;;83.43;60.05;;;2.70;99.90;;;;;;5067981;28;20951;-82
2021/12/09 11:00:37;;;;;;;78.75;57.90;;;2.50;99.90;;;;;;5067215;28;20420;-80
2021/12/09 11:03:05;;;;;;;80.72;58.65;;;2.40;99.90;;;;;;5069097;28;20892;-80
2021/12/09 11:05:40;;;;;;;77.15;56.92;;;2.40;99.90;;;;;;5068800;28;20398;-83
2021/12/09 11:08:43;;;;;;;74.82;55.20;;;2.60;99.90;;;;;;5068294;28;20386;-83
2021/12/09 11:11:15;;;;;;;76.53;56.55;;;2.60;99.90;;;;;;5058319;28;20393;-82
2021/12/09 11:13:48;;;;;;;75.03;55.60;;;2.60;99.90;;;;;;5066848;28;20416;-82
2021/12/09 11:16:30;;;;;;;74.83;56.47;;;2.60;99.90;;;;;;5068935;28;20374;-82
2021/12/09 11:19:31;;;;;;;73.40;56.45;;;2.70;99.90;;;;;;5067039;28;20377;-82
2021/12/09 11:22:06;;;;;;;73.22;54.80;;;2.80;99.90;;;;;;5067140;28;20464;-83
2021/12/09 11:24:37;;;;;;;72.72;54.58;;;2.80;99.90;;;;;;5067633;28;20453;-80
2021/12/09 11:27:04;;;;;;;77.57;56.93;;;2.70;99.90;;;;;;5067626;28;20390;-80
2021/12/09 11:29:36;;;;;;;75.03;55.03;;;2.80;99.90;;;;;;5067938;28;20401;-82
2021/12/09 11:34:47;;;;;;;75.13;55.87;;;2.80;99.90;;;;;;5068890;28;20370;-80
2021/12/09 11:39:54;;;;;;;72.70;55.05;;;2.70;99.90;;;;;;5068152;28;20389;-83
2021/12/09 11:42:31;;;;;;;76.70;56.97;;;2.50;99.90;;;;;;5068174;28;20447;-80
2021/12/09 11:44:57;;;;;;;76.65;57.33;;;2.30;99.90;;;;;;5068588;28;20416;-82
2021/12/09 11:47:23;;;;;;;76.53;57.33;;;2.10;99.90;;;;;;5067311;28;20366;-81
2021/12/09 11:49:51;;;;;;;74.67;55.80;;;2.10;99.90;;;;;;5067442;28;20741;-80
2021/12/09 11:52:19;;;;;;;77.15;57.22;;;2.20;99.90;;;;;;5068096;28;20963;-82
2021/12/09 11:54:55;;;;;;;79.75;58.00;;;2.10;99.90;;;;;;5067518;28;20383;-81
2021/12/09 11:57:56;;;;;;;77.93;57.20;;;2.20;99.90;;;;;;5068358;28;20496;-82
2021/12/09 12:12:29;;;;;;;74.72;55.85;;;2.70;99.90;;;;;;5068157;28;20736;-80
2021/12/09 12:15:16;;;;;;;75.88;55.60;;;2.80;99.90;;;;;;5066651;28;20467;-83
2021/12/09 12:35:11;;;;;;;81.88;59.50;;;2.60;99.90;;;;;;5072055;28;20860;-82
2021/12/09 12:40:35;;;;;;;74.30;55.72;;;2.80;99.90;;;;;;5071951;28;20369;-83
2021/12/09 12:43:12;;;;;;;75.72;57.58;;;2.80;99.90;;;;;;5071881;28;20420;-81
2021/12/09 12:46:17;;;;;;;77.38;57.83;;;2.70;99.90;;;;;;5070094;28;20397;-81
2021/12/09 12:51:50;;;;;;;75.60;57.53;;;2.80;99.90;;;;;;5060790;28;20382;-81
2021/12/09 12:54:36;;;;;;;79.90;60.05;;;2.80;99.90;;;;;;5071866;28;20370;-80
2021/12/09 12:57:15;;;;;;;80.63;60.33;;;2.70;99.90;;;;;;5071727;28;20382;-81
2021/12/09 12:59:58;;;;;;;79.68;58.78;;;2.50;99.90;;;;;;5071027;28;20413;-83
2021/12/09 13:13:51;;;;;;;83.25;60.38;;;1.60;99.90;;;;;;5070465;28;20386;-80
2021/12/09 13:21:35;;;;;;;84.50;60.97;;;1.60;99.90;;;;;;5068693;28;20393;-82
2021/12/09 13:24:30;;;;;;;82.38;60.17;;;1.70;99.90;;;;;;5069185;28;20400;-81
2021/12/09 13:27:03;;;;;;;82.55;60.42;;;1.80;99.90;;;;;;5058688;28;20947;-82
2021/12/09 13:29:40;;;;;;;83.23;60.67;;;1.90;99.90;;;;;;5067714;28;20424;-81
2021/12/09 13:32:26;;;;;;;81.47;60.37;;;1.90;99.90;;;;;;5068900;28;20443;-82
2021/12/09 13:35:07;;;;;;;80.10;58.78;;;1.90;99.90;;;;;;5071008;28;20725;-82
2021/12/09 13:37:52;;;;;;;84.47;61.70;;;2.00;99.90;;;;;;5061687;28;20409;-83
2021/12/09 13:45:47;;;;;;;79.97;60.72;;;1.90;99.90;;;;;;5068941;28;20389;-83
2021/12/09 13:46:16;;;;;;;84.78;62.22;;;1.80;99.90;;;;;;5069448;28;20393;-81
2021/12/09 13:54:27;;;;;;;81.53;60.77;;;1.80;99.90;;;;;;5070615;28;20413;-83
2021/12/09 13:57:05;;;;;;;85.15;61.85;;;1.90;99.90;;;;;;5069873;28;20415;-82
2021/12/09 13:59:34;;;;;;;85.87;61.47;;;1.90;99.90;;;;;;5059332;28;20386;-83
2021/12/09 14:02:17;;;;;;;80.03;59.17;;;1.90;99.90;;;;;;5060355;28;20382;-82